Time;durP1;ratioP1;P1;durP2;ratioP2;P2;SDS_P1;SDS_P2;PMS_P1;PMS_P2;Temp;Humidity;BMP_temperature;BMP_pressure;BME280_temperature;BME280_humidity;BME280_pressure;Samples;Min_cycle;Max_cycle;Signal;HPM_P1;HPM_P2
2021/12/19 00:08:50;;;;;;;15.98;7.05;;;;;;;4.71;97.15;103600.63;10498722;28;20044;-80
2021/12/19 00:13:53;;;;;;;19.60;8.07;;;;;;;4.69;96.73;103596.16;10465260;28;20051;-80
2021/12/19 00:18:55;;;;;;;24.83;8.13;;;;;;;4.65;96.90;103579.63;10497841;28;20055;-80
2021/12/19 00:23:57;;;;;;;18.52;7.40;;;;;;;4.67;97.06;103588.31;10480960;28;20073;-80
2021/12/19 00:29:00;;;;;;;22.75;8.48;;;;;;;4.67;97.30;103583.22;10464519;28;20048;-80
2021/12/19 00:34:02;;;;;;;20.70;7.40;;;;;;;4.67;97.26;103580.66;10480955;28;20063;-80
2021/12/19 00:39:04;;;;;;;17.35;7.40;;;;;;;4.70;97.36;103557.97;10464795;28;20087;-80
2021/12/19 00:44:10;;;;;;;26.80;8.00;;;;;;;4.80;97.13;103540.94;10463859;28;20048;-80
2021/12/19 00:49:13;;;;;;;22.90;7.63;;;;;;;4.81;97.41;103547.81;10497267;28;20036;-80
2021/12/19 00:54:15;;;;;;;21.50;7.63;;;;;;;4.86;97.26;103538.94;10496709;28;20384;-80
2021/12/19 00:59:17;;;;;;;24.10;7.53;;;;;;;4.83;97.33;103537.03;10479957;28;20048;-80
2021/12/19 01:04:22;;;;;;;21.45;7.43;;;;;;;4.79;97.57;103536.59;10479931;28;20047;-80
2021/12/19 01:09:23;;;;;;;22.40;6.68;;;;;;;4.81;97.93;103542.72;10488818;28;20056;-80
2021/12/19 01:14:25;;;;;;;21.55;6.55;;;;;;;4.76;97.53;103535.53;10471287;28;20051;-80
2021/12/19 01:19:27;;;;;;;13.95;4.30;;;;;;;4.68;97.68;103536.50;10460878;28;20135;-80
2021/12/19 01:24:30;;;;;;;10.90;3.60;;;;;;;4.62;96.68;103532.50;10454612;28;20032;-80
2021/12/19 01:29:31;;;;;;;14.25;4.57;;;;;;;4.60;97.43;103532.31;10503276;28;20037;-80
2021/12/19 01:34:33;;;;;;;12.73;4.03;;;;;;;4.60;96.77;103535.78;10482353;28;20040;-80
2021/12/19 01:39:35;;;;;;;10.63;3.33;;;;;;;4.55;96.34;103536.13;10503172;28;20130;-81
2021/12/19 01:44:37;;;;;;;9.23;3.15;;;;;;;4.53;96.55;103528.31;10469064;28;20053;-80
2021/12/19 01:49:39;;;;;;;9.27;2.88;;;;;;;4.54;96.42;103540.31;10502623;28;20048;-80
2021/12/19 01:54:40;;;;;;;9.05;3.17;;;;;;;4.57;96.29;103534.63;10486649;28;20115;-81
2021/12/19 01:59:42;;;;;;;7.10;3.25;;;;;;;4.57;96.26;103526.94;10490350;28;20518;-80
2021/12/19 02:04:44;;;;;;;8.52;2.78;;;;;;;4.57;96.45;103515.06;10469071;28;20044;-81
2021/12/19 02:09:46;;;;;;;10.18;2.88;;;;;;;4.58;96.74;103510.84;10467270;28;20049;-81
2021/12/19 02:14:48;;;;;;;5.90;2.60;;;;;;;4.67;96.63;103500.59;10485374;28;20048;-80
2021/12/19 02:19:50;;;;;;;10.43;3.13;;;;;;;4.71;97.24;103503.59;10467917;28;20048;-80
2021/12/19 02:24:52;;;;;;;9.77;3.53;;;;;;;4.74;96.61;103496.19;10469671;28;20045;-79
2021/12/19 02:29:53;;;;;;;6.47;2.38;;;;;;;4.65;96.44;103482.59;10485389;28;20083;-79
2021/12/19 02:34:58;;;;;;;6.97;2.88;;;;;;;4.65;96.68;103477.50;10501743;28;20106;-80
2021/12/19 02:50:26;;;;;;;8.23;2.55;;;;;;;4.71;97.02;103466.91;10484575;28;20056;-79
2021/12/19 02:55:27;;;;;;;5.63;2.42;;;;;;;4.78;96.89;103469.28;10500905;28;20045;-80
2021/12/19 03:00:29;;;;;;;6.55;2.78;;;;;;;4.74;97.46;103465.53;10500655;28;20048;-80
2021/12/19 03:05:33;;;;;;;9.63;3.35;;;;;;;4.78;97.46;103468.38;10467019;28;20040;-80
2021/12/19 03:21:17;;;;;;;7.03;2.45;;;;;;;4.90;96.72;103437.19;10459540;28;20403;-81
2021/12/19 03:26:19;;;;;;;5.05;2.15;;;;;;;4.85;97.66;103424.75;10454976;28;20035;-81
2021/12/19 03:31:21;;;;;;;6.68;2.30;;;;;;;4.89;97.28;103429.38;10496165;28;20050;-80
2021/12/19 03:36:23;;;;;;;4.88;1.80;;;;;;;4.90;96.97;103418.41;10482364;28;20040;-80
2021/12/19 03:41:33;;;;;;;3.85;1.80;;;;;;;4.86;97.43;103406.13;10451966;28;20049;-81
2021/12/19 03:46:35;;;;;;;5.40;1.98;;;;;;;4.91;97.31;103399.75;10470729;28;20415;-80
2021/12/19 03:51:37;;;;;;;5.10;2.10;;;;;;;4.92;97.33;103396.44;10449474;28;20060;-80
2021/12/19 03:56:39;;;;;;;7.18;2.40;;;;;;;4.92;97.49;103382.00;10458336;28;20041;-80
2021/12/19 04:01:46;;;;;;;5.82;2.15;;;;;;;4.97;97.12;103377.31;10456381;28;20052;-81
2021/12/19 04:06:48;;;;;;;7.35;1.88;;;;;;;4.96;97.50;103369.50;10480281;28;20090;-80
2021/12/19 04:11:51;;;;;;;4.65;2.17;;;;;;;4.96;97.54;103362.72;10464125;28;20052;-80
2021/12/19 04:16:53;;;;;;;8.80;2.42;;;;;;;5.01;97.18;103352.91;10497491;28;20050;-80
2021/12/19 04:21:56;;;;;;;7.82;2.30;;;;;;;5.02;97.64;103352.16;10495374;28;20419;-80
2021/12/19 04:26:58;;;;;;;5.88;2.30;;;;;;;5.01;97.71;103348.72;10447557;28;20091;-80
2021/12/19 04:31:59;;;;;;;7.60;2.70;;;;;;;5.05;97.98;103339.66;10480952;28;20040;-80
2021/12/19 04:37:10;;;;;;;8.98;2.63;;;;;;;5.07;98.00;103338.13;10463720;28;20048;-80
2021/12/19 04:53:06;;;;;;;;;;;;;;;5.13;97.86;103322.44;10496952;28;20044;-81
2021/12/19 05:03:43;;;;;;;5.57;2.03;;;;;;;5.15;97.72;103328.59;10479612;28;20044;-80
2021/12/19 05:14:11;;;;;;;8.68;2.70;;;;;;;5.29;97.44;103315.34;10456004;28;20045;-80
2021/12/19 05:19:27;;;;;;;6.25;2.83;;;;;;;5.30;97.63;103317.13;10448118;28;20514;-80
2021/12/19 05:30:15;;;;;;;6.70;2.42;;;;;;;5.36;97.72;103320.22;10471194;28;20032;-80
2021/12/19 05:35:25;;;;;;;5.85;2.33;;;;;;;5.39;98.17;103309.34;10477640;28;20039;-80
2021/12/19 05:46:07;;;;;;;7.00;2.38;;;;;;;5.44;97.97;103302.09;10409522;28;20049;-80
2021/12/19 05:51:08;;;;;;;7.35;2.45;;;;;;;5.47;98.15;103294.69;10444940;28;20140;-81
2021/12/19 05:56:10;;;;;;;3.58;1.70;;;;;;;5.45;98.14;103311.56;10494194;28;20044;-81
2021/12/19 06:01:12;;;;;;;5.18;1.80;;;;;;;5.43;98.34;103307.97;10488374;28;20048;-79
2021/12/19 06:06:14;;;;;;;3.83;1.70;;;;;;;5.43;97.63;103298.66;10468039;28;20051;-81
2021/12/19 06:11:37;;;;;;;4.68;1.38;;;;;;;5.37;97.37;103296.47;10483165;28;20396;-80
2021/12/19 06:16:39;;;;;;;3.92;1.20;;;;;;;5.33;97.77;103291.81;10502110;28;20140;-80
2021/12/19 06:21:41;;;;;;;3.17;0.90;;;;;;;5.32;97.74;103290.06;10468396;28;20048;-80
2021/12/19 06:26:42;;;;;;;3.85;1.10;;;;;;;5.32;97.70;103282.41;10501139;28;20483;-80
2021/12/19 06:31:44;;;;;;;3.25;1.30;;;;;;;5.36;97.31;103283.56;10474509;28;20508;-80
2021/12/19 06:37:13;;;;;;;5.15;1.77;;;;;;;5.30;97.79;103289.03;10475311;28;20055;-80
2021/12/19 06:42:15;;;;;;;3.88;1.27;;;;;;;5.28;97.74;103277.75;10494285;28;20056;-80
2021/12/19 06:47:19;;;;;;;4.07;1.42;;;;;;;5.25;97.84;103274.94;10443243;28;20041;-81
2021/12/19 06:52:21;;;;;;;3.45;1.35;;;;;;;5.24;97.72;103274.06;10458928;28;20458;-80
2021/12/19 06:57:23;;;;;;;2.90;0.95;;;;;;;5.12;97.21;103265.34;10433194;28;20061;-80
2021/12/19 07:02:25;;;;;;;3.55;1.10;;;;;;;4.96;96.77;103270.75;10460605;28;20048;-80
2021/12/19 07:07:27;;;;;;;2.42;1.10;;;;;;;4.89;96.58;103268.44;10495583;28;20536;-80
2021/12/19 07:12:28;;;;;;;3.53;1.15;;;;;;;4.92;96.16;103263.59;10500441;28;20044;-80
2021/12/19 07:17:30;;;;;;;2.25;0.88;;;;;;;4.93;96.34;103262.84;10482380;28;20444;-80
2021/12/19 07:22:32;;;;;;;4.32;0.60;;;;;;;4.94;96.59;103262.09;10497166;28;20055;-80
2021/12/19 07:27:34;;;;;;;2.63;1.00;;;;;;;4.91;96.70;103274.59;10455381;28;20053;-80
2021/12/19 07:32:37;;;;;;;2.85;0.77;;;;;;;4.88;96.72;103271.75;10466154;28;20059;-80
2021/12/19 07:37:55;;;;;;;2.47;1.08;;;;;;;4.81;96.98;103264.31;10447127;28;20052;-80
2021/12/19 07:42:58;;;;;;;2.13;0.88;;;;;;;4.79;96.70;103260.75;10457247;28;20044;-80
2021/12/19 07:48:53;;;;;;;4.25;1.30;;;;;;;4.78;97.00;103254.72;10463660;28;20064;-80
2021/12/19 07:53:55;;;;;;;2.40;0.80;;;;;;;4.74;96.07;103251.00;10463875;28;20071;-80
2021/12/19 07:58:57;;;;;;;4.35;0.90;;;;;;;4.75;96.27;103242.59;10477130;28;20124;-80
2021/12/19 08:04:02;;;;;;;2.88;0.85;;;;;;;4.71;95.99;103232.88;10469624;28;20091;-80
2021/12/19 08:10:11;;;;;;;5.35;1.05;;;;;;;4.71;96.66;103238.00;10457216;28;20123;-80
2021/12/19 08:15:16;;;;;;;2.58;0.98;;;;;;;4.79;96.66;103235.22;10468326;28;20045;-80
2021/12/19 08:20:20;;;;;;;1.33;0.85;;;;;;;4.81;96.88;103238.78;10469048;28;20488;-80
2021/12/19 08:25:25;;;;;;;4.28;1.00;;;;;;;4.85;96.35;103222.97;10450146;28;20048;-79
2021/12/19 08:30:29;;;;;;;3.50;1.08;;;;;;;4.86;96.38;103232.44;10460537;28;20048;-80
2021/12/19 08:35:59;;;;;;;4.30;1.83;;;;;;;4.85;96.15;103240.84;10466118;28;20052;-80
2021/12/19 08:41:00;;;;;;;4.25;1.63;;;;;;;4.87;96.22;103234.22;10463356;28;20488;-80
2021/12/19 08:46:02;;;;;;;3.22;1.30;;;;;;;4.97;95.87;103224.00;10471376;28;20048;-81
2021/12/19 08:51:04;;;;;;;2.17;1.02;;;;;;;5.11;96.31;103224.28;10443617;28;20068;-80
2021/12/19 08:56:06;;;;;;;4.47;1.48;;;;;;;5.24;96.00;103216.94;10463681;28;20048;-80
2021/12/19 09:01:10;;;;;;;1.73;1.00;;;;;;;5.20;96.58;103209.75;10466353;28;20563;-80
2021/12/19 09:06:14;;;;;;;2.78;0.88;;;;;;;5.13;95.73;103212.56;10463502;28;20103;-81
2021/12/19 09:11:33;;;;;;;1.60;1.05;;;;;;;5.20;96.50;103215.78;10467374;28;20049;-80
2021/12/19 09:16:35;;;;;;;4.22;1.35;;;;;;;5.18;96.46;103208.72;10468378;28;20412;-79
2021/12/19 09:22:03;;;;;;;4.45;1.60;;;;;;;5.22;96.16;103211.69;10466016;28;20049;-80
2021/12/19 09:27:09;;;;;;;4.38;2.00;;;;;;;5.20;96.50;103226.00;10476694;28;20052;-81
2021/12/19 09:32:12;;;;;;;7.53;2.45;;;;;;;5.22;95.84;103221.00;10456486;28;20182;-81
2021/12/19 09:37:18;;;;;;;9.93;2.85;;;;;;;5.23;95.96;103210.03;10462645;28;20048;-81
2021/12/19 09:49:15;;;;;;;8.93;3.58;;;;;;;5.30;95.21;103212.34;10489032;28;20044;-82
2021/12/19 09:54:18;;;;;;;11.48;3.78;;;;;;;5.35;95.63;103221.28;10475835;28;20056;-81
2021/12/19 09:59:22;;;;;;;8.88;3.20;;;;;;;5.37;95.99;103213.72;10498641;28;20043;-81
2021/12/19 10:04:33;;;;;;;10.00;3.25;;;;;;;5.44;95.58;103204.94;10474171;28;20040;-81
2021/12/19 10:10:00;;;;;;;8.93;3.67;;;;;;;5.42;95.91;103194.59;10475157;28;20490;-81
2021/12/19 10:15:12;;;;;;;16.17;4.20;;;;;;;5.48;95.89;103186.50;10495652;28;20049;-81
2021/12/19 10:20:16;;;;;;;11.93;3.88;;;;;;;5.49;94.39;103179.00;10483385;28;20055;-81
2021/12/19 10:25:30;;;;;;;12.82;3.63;;;;;;;5.55;94.67;103173.47;10470914;28;20045;-81
2021/12/19 10:30:38;;;;;;;8.20;3.33;;;;;;;5.55;94.40;103163.25;10446880;28;20048;-81
2021/12/19 10:35:47;;;;;;;10.93;5.03;;;;;;;5.50;95.01;103159.41;10470020;28;20384;-81
2021/12/19 10:40:53;;;;;;;8.63;3.85;;;;;;;5.53;94.90;103154.56;10490099;28;20068;-80
2021/12/19 10:45:58;;;;;;;10.60;3.72;;;;;;;5.52;95.07;103155.34;10453883;28;20063;-81
2021/12/19 10:51:12;;;;;;;11.60;4.05;;;;;;;5.52;95.25;103147.66;10475532;28;20040;-81
2021/12/19 10:56:19;;;;;;;10.23;3.65;;;;;;;5.50;95.08;103128.72;10455559;28;20119;-81
2021/12/19 11:01:36;;;;;;;12.52;4.07;;;;;;;5.56;93.99;103134.34;10453739;28;20044;-80
2021/12/19 11:06:42;;;;;;;16.70;3.88;;;;;;;5.54;92.88;103131.69;10467696;28;20056;-81
2021/12/19 11:11:47;;;;;;;11.70;3.92;;;;;;;5.58;93.59;103137.94;10483925;28;20098;-81
2021/12/19 11:16:54;;;;;;;13.65;3.80;;;;;;;5.61;93.49;103125.41;10482026;28;20090;-81
2021/12/19 11:21:56;;;;;;;9.38;3.45;;;;;;;5.65;93.44;103119.78;10476922;28;20094;-81
2021/12/19 11:27:04;;;;;;;13.10;3.53;;;;;;;5.64;93.31;103107.75;10485150;28;20044;-80
2021/12/19 11:32:18;;;;;;;7.60;2.83;;;;;;;5.67;93.12;103107.09;10487333;28;20049;-81
2021/12/19 11:37:49;;;;;;;9.85;3.00;;;;;;;5.74;93.66;103099.16;10475739;28;20048;-81
2021/12/19 11:43:01;;;;;;;6.30;2.65;;;;;;;5.71;92.96;103091.25;10477108;28;20076;-81
2021/12/19 11:53:43;;;;;;;6.45;2.40;;;;;;;5.77;93.08;103072.94;10469765;28;20048;-81
2021/12/19 11:58:48;;;;;;;8.48;2.47;;;;;;;5.88;93.61;103059.34;10475051;28;20050;-81
2021/12/19 12:03:55;;;;;;;6.35;2.70;;;;;;;5.85;93.79;103057.44;10476060;28;20079;-81
2021/12/19 12:09:22;;;;;;;10.10;3.08;;;;;;;5.78;93.11;103051.69;10471226;28;20132;-81
2021/12/19 12:14:28;;;;;;;13.23;2.95;;;;;;;5.88;93.88;103041.44;10472623;28;20484;-81
2021/12/19 12:19:44;;;;;;;12.30;3.53;;;;;;;5.77;93.28;103042.25;10474253;28;20397;-81
2021/12/19 12:25:06;;;;;;;11.65;3.08;;;;;;;5.87;94.34;103014.06;10473772;28;20044;-81
2021/12/19 12:30:12;;;;;;;11.60;3.67;;;;;;;5.89;93.74;103009.97;10474058;28;20055;-81
2021/12/19 12:35:16;;;;;;;12.98;3.58;;;;;;;6.03;94.10;103003.41;10461878;28;20041;-81
2021/12/19 12:40:31;;;;;;;9.88;3.22;;;;;;;5.95;94.22;102997.66;10468354;28;20044;-81
2021/12/19 12:45:49;;;;;;;11.05;3.90;;;;;;;6.00;94.19;102991.25;10495012;28;20045;-81
2021/12/19 12:50:50;;;;;;;11.52;2.88;;;;;;;5.96;93.69;102984.09;10475511;28;20045;-81
2021/12/19 12:56:01;;;;;;;6.88;2.97;;;;;;;5.96;94.17;102984.09;10461044;28;20041;-82
2021/12/19 13:01:22;;;;;;;8.57;3.25;;;;;;;5.98;94.07;102984.19;10451837;28;20419;-81
2021/12/19 13:06:54;;;;;;;11.38;3.38;;;;;;;6.03;93.97;102972.72;10453809;28;20041;-81
2021/12/19 13:12:05;;;;;;;26.05;10.95;;;;;;;6.07;93.70;102963.59;10468261;28;20055;-82
2021/12/19 13:17:15;;;;;;;11.90;2.90;;;;;;;6.02;93.87;102973.47;10477244;28;20045;-80
2021/12/19 13:22:39;;;;;;;16.17;3.77;;;;;;;6.04;94.26;102966.78;10491622;28;20068;-80
2021/12/19 13:27:47;;;;;;;9.35;3.42;;;;;;;5.96;94.43;102966.19;10457247;28;20052;-81
2021/12/19 13:32:56;;;;;;;10.77;2.95;;;;;;;5.96;94.67;102963.63;10477123;28;20389;-81
2021/12/19 13:38:08;;;;;;;10.70;3.17;;;;;;;5.96;94.42;102963.63;10468774;28;20041;-81
2021/12/19 13:43:17;;;;;;;10.65;3.10;;;;;;;5.95;94.55;102966.06;10480172;28;20111;-81
2021/12/19 13:48:35;;;;;;;7.00;2.92;;;;;;;5.95;95.07;102951.59;10471630;28;20049;-80
2021/12/19 13:53:43;;;;;;;17.85;3.17;;;;;;;5.97;95.45;102954.25;10447034;28;20044;-80
2021/12/19 13:58:51;;;;;;;9.55;3.08;;;;;;;5.95;95.51;102948.16;10450599;28;20044;-81
2021/12/19 14:03:55;;;;;;;8.88;2.90;;;;;;;5.85;95.20;102949.09;10486162;28;20101;-81
2021/12/19 14:09:00;;;;;;;7.80;3.00;;;;;;;5.94;94.77;102939.56;10465706;28;20036;-81
2021/12/19 14:14:23;;;;;;;6.30;2.80;;;;;;;5.92;94.94;102935.13;10459964;28;20056;-81
2021/12/19 14:19:28;;;;;;;12.45;3.20;;;;;;;6.00;95.07;102926.41;10452702;28;20051;-80
2021/12/19 14:24:44;;;;;;;8.27;2.47;;;;;;;5.84;95.03;102922.63;10476402;28;20053;-80
2021/12/19 14:29:55;;;;;;;7.38;2.78;;;;;;;5.87;94.71;102911.72;10464129;28;20037;-80
2021/12/19 14:35:00;;;;;;;14.65;3.00;;;;;;;5.87;95.62;102911.72;10483180;28;20040;-80
2021/12/19 14:40:11;;;;;;;8.57;2.70;;;;;;;5.86;94.99;102913.41;10497914;28;20044;-80
2021/12/19 14:45:32;;;;;;;11.93;2.88;;;;;;;5.90;95.39;102911.97;10481675;28;20044;-80
2021/12/19 14:50:48;;;;;;;8.95;3.20;;;;;;;5.85;95.19;102908.16;10480841;28;20040;-81
2021/12/19 14:56:07;;;;;;;4.85;2.53;;;;;;;5.86;95.21;102900.63;10477637;28;20044;-80
2021/12/19 15:01:26;;;;;;;9.65;2.80;;;;;;;5.84;95.50;102897.03;10492618;28;20499;-81
2021/12/19 15:06:39;;;;;;;6.55;3.25;;;;;;;5.87;96.18;102901.50;10487457;28;20502;-81
2021/12/19 15:11:49;;;;;;;7.60;2.83;;;;;;;5.85;95.50;102897.91;10453451;28;20045;-81
2021/12/19 15:16:51;;;;;;;12.02;3.30;;;;;;;5.80;95.83;102895.03;10487371;28;20049;-80
2021/12/19 15:21:53;;;;;;;16.05;3.30;;;;;;;5.78;95.90;102890.53;10462737;28;20043;-80
2021/12/19 15:26:54;;;;;;;11.85;3.40;;;;;;;5.77;95.73;102883.69;10450431;28;20476;-80
2021/12/19 15:31:58;;;;;;;10.50;2.85;;;;;;;5.74;96.17;102876.63;10478270;28;20511;-79
2021/12/19 15:37:00;;;;;;;10.48;3.03;;;;;;;5.74;96.07;102873.19;10471945;28;20048;-80
2021/12/19 15:42:03;;;;;;;5.85;2.70;;;;;;;5.76;95.20;102875.09;10480474;28;20060;-80
2021/12/19 15:47:05;;;;;;;14.32;3.20;;;;;;;5.79;95.36;102864.19;10465218;28;20048;-80
2021/12/19 15:52:07;;;;;;;11.73;2.75;;;;;;;5.81;95.43;102872.88;10468345;28;20083;-80
2021/12/19 15:57:09;;;;;;;14.32;2.33;;;;;;;5.78;95.06;102859.84;10467423;28;20462;-80
2021/12/19 16:02:18;;;;;;;12.35;2.80;;;;;;;5.79;95.12;102844.66;10452886;28;20051;-80
2021/12/19 16:07:20;;;;;;;7.40;2.50;;;;;;;5.77;94.75;102853.84;10449857;28;20596;-80
2021/12/19 16:12:21;;;;;;;7.63;2.50;;;;;;;5.78;94.67;102844.50;10463357;28;20044;-81
2021/12/19 16:17:24;;;;;;;9.13;2.60;;;;;;;5.80;94.85;102837.84;10456533;28;20086;-80
2021/12/19 16:22:26;;;;;;;10.05;2.58;;;;;;;5.78;94.60;102839.38;10477683;28;20060;-80
2021/12/19 16:27:30;;;;;;;17.45;3.63;;;;;;;5.79;94.88;102844.66;10481165;28;20047;-80
2021/12/19 16:32:32;;;;;;;8.98;2.53;;;;;;;5.76;94.64;102840.97;10477259;28;20048;-80
2021/12/19 16:37:39;;;;;;;7.70;2.60;;;;;;;5.79;94.43;102831.84;10485123;28;20403;-80
2021/12/19 16:47:46;;;;;;;7.70;2.97;;;;;;;5.80;94.59;102825.06;10488892;28;20484;-80
2021/12/19 16:52:48;;;;;;;15.05;2.88;;;;;;;5.78;94.64;102813.81;10503875;28;20044;-80
2021/12/19 16:57:49;;;;;;;16.20;3.55;;;;;;;5.75;94.56;102821.28;10454607;28;20484;-80
2021/12/19 17:02:58;;;;;;;12.93;3.50;;;;;;;5.77;94.87;102820.59;10457600;28;20063;-80
2021/12/19 17:08:00;;;;;;;13.20;2.97;;;;;;;5.73;94.76;102826.28;10472630;28;20542;-80
2021/12/19 17:13:05;;;;;;;15.52;2.72;;;;;;;5.73;93.96;102818.59;10469575;28;20454;-80
2021/12/19 17:18:09;;;;;;;16.60;2.92;;;;;;;5.75;93.79;102818.72;10485904;28;20488;-81
2021/12/19 17:23:11;;;;;;;11.65;2.58;;;;;;;5.76;93.51;102811.16;10468396;28;20057;-80
2021/12/19 17:28:12;;;;;;;10.98;2.42;;;;;;;5.75;93.35;102813.59;10463305;28;20044;-81
2021/12/19 17:33:15;;;;;;;10.38;2.50;;;;;;;5.75;93.57;102816.16;10470411;28;20494;-80
2021/12/19 17:38:19;;;;;;;18.85;2.83;;;;;;;5.75;93.42;102782.91;10472215;28;20495;-81
2021/12/19 17:43:21;;;;;;;13.15;2.40;;;;;;;5.75;94.03;102795.69;10449832;28;20530;-81
2021/12/19 17:48:24;;;;;;;11.25;2.60;;;;;;;5.72;93.42;102809.16;10463796;28;20047;-80
2021/12/19 17:53:27;;;;;;;20.50;5.30;;;;;;;5.71;93.72;102800.56;10462123;28;20135;-81
2021/12/19 17:58:29;;;;;;;14.13;3.10;;;;;;;5.71;94.37;102799.69;10453441;28;20033;-81
2021/12/19 18:03:32;;;;;;;14.02;3.22;;;;;;;5.72;94.40;102797.22;10462456;28;20087;-80
2021/12/19 18:08:34;;;;;;;12.75;2.75;;;;;;;5.71;94.23;102792.88;10477019;28;20047;-80
2021/12/19 18:13:35;;;;;;;14.07;2.78;;;;;;;5.73;93.84;102800.69;10501250;28;20053;-81
2021/12/19 18:18:37;;;;;;;9.43;2.78;;;;;;;5.76;94.25;102800.03;10460969;28;20048;-80
2021/12/19 18:23:42;;;;;;;24.73;4.47;;;;;;;5.76;94.50;102800.03;10462227;28;20051;-80
2021/12/19 18:28:45;;;;;;;19.30;4.18;;;;;;;5.72;94.63;102804.91;10462080;28;20045;-80
2021/12/19 18:33:49;;;;;;;15.65;3.88;;;;;;;5.69;94.86;102796.09;10499483;28;20074;-80
2021/12/19 18:38:54;;;;;;;12.63;3.15;;;;;;;5.68;94.85;102802.00;10496955;28;20063;-80
2021/12/19 18:44:11;;;;;;;16.92;3.20;;;;;;;5.71;96.08;102805.69;10474425;28;20067;-80
2021/12/19 18:49:29;;;;;;;14.38;3.03;;;;;;;5.68;95.45;102804.56;10480473;28;20410;-80
2021/12/19 18:59:44;;;;;;;11.80;3.20;;;;;;;5.60;96.22;102806.53;10472394;28;20070;-81
2021/12/19 19:04:45;;;;;;;14.38;3.17;;;;;;;5.59;96.66;102791.06;10461473;28;20109;-81
2021/12/19 19:09:49;;;;;;;14.20;2.58;;;;;;;5.62;96.20;102797.28;10455946;28;20077;-82
2021/12/19 19:14:52;;;;;;;10.48;2.65;;;;;;;5.59;96.01;102789.41;10476736;28;20067;-81
2021/12/19 19:19:53;;;;;;;13.43;2.65;;;;;;;5.60;96.39;102783.53;10471955;28;20047;-82
2021/12/19 19:24:55;;;;;;;6.90;2.67;;;;;;;5.61;96.57;102798.09;10478303;28;20055;-82
2021/12/19 19:29:57;;;;;;;11.95;2.35;;;;;;;5.59;95.73;102791.97;10477216;28;20132;-82
2021/12/19 19:34:59;;;;;;;14.45;2.15;;;;;;;5.61;95.87;102795.53;10472989;28;20036;-81
2021/12/19 19:50:34;;;;;;;11.38;2.00;;;;;;;5.64;94.52;102787.22;10475314;28;20052;-82
2021/12/19 19:55:37;;;;;;;7.40;1.85;;;;;;;5.63;94.12;102782.84;10475344;28;20048;-82
2021/12/19 20:00:39;;;;;;;7.72;1.90;;;;;;;5.62;94.50;102789.63;10457535;28;20555;-81
2021/12/19 20:05:40;;;;;;;10.73;3.00;;;;;;;5.61;94.37;102795.53;10467535;28;20040;-81
2021/12/19 20:10:46;;;;;;;10.02;1.48;;;;;;;5.61;93.31;102790.44;10473658;28;20064;-82
2021/12/19 20:15:47;;;;;;;14.85;2.13;;;;;;;5.58;93.72;102790.19;10475902;28;20064;-82
2021/12/19 20:20:50;;;;;;;11.05;1.80;;;;;;;5.59;93.05;102786.84;10484725;28;20048;-82
2021/12/19 20:25:52;;;;;;;13.30;2.20;;;;;;;5.60;92.93;102791.19;10468854;28;20049;-81
2021/12/19 20:30:55;;;;;;;6.53;1.73;;;;;;;5.59;93.53;102798.72;10470423;28;20055;-82
2021/12/19 20:35:57;;;;;;;7.03;2.05;;;;;;;5.59;93.13;102796.16;10486242;28;20044;-82
2021/12/19 20:40:58;;;;;;;14.60;2.20;;;;;;;5.59;93.36;102786.84;10468577;28;20090;-82
2021/12/19 20:46:02;;;;;;;13.52;2.65;;;;;;;5.61;93.18;102797.19;10484803;28;20044;-83
2021/12/19 20:51:04;;;;;;;9.32;2.08;;;;;;;5.61;93.18;102798.09;10451299;28;20147;-82
2021/12/19 20:56:05;;;;;;;14.70;2.30;;;;;;;5.60;93.76;102809.09;10461491;28;20377;-82
2021/12/19 21:01:08;;;;;;;9.18;1.98;;;;;;;5.56;92.70;102794.28;10441265;28;20045;-82
2021/12/19 21:06:09;;;;;;;9.18;2.00;;;;;;;5.58;92.33;102819.97;10448671;28;20045;-81
2021/12/19 21:11:16;;;;;;;13.00;1.80;;;;;;;5.58;91.61;102790.19;10455737;28;20109;-82
2021/12/19 21:21:38;;;;;;;13.50;2.08;;;;;;;5.53;91.20;102802.59;10491512;28;20041;-82
2021/12/19 21:26:40;;;;;;;12.35;1.95;;;;;;;5.49;91.40;102800.59;10480308;28;20044;-82
2021/12/19 21:31:42;;;;;;;10.98;2.20;;;;;;;5.54;91.29;102799.28;10478627;28;20053;-82
2021/12/19 21:42:05;;;;;;;9.55;2.28;;;;;;;5.52;91.05;102799.94;10497590;28;20047;-82
2021/12/19 21:47:07;;;;;;;8.40;2.15;;;;;;;5.45;91.03;102792.56;10463503;28;20049;-82
2021/12/19 21:52:09;;;;;;;8.90;1.90;;;;;;;5.48;91.32;102782.56;10458331;28;20136;-82
2021/12/19 21:57:11;;;;;;;10.73;2.38;;;;;;;5.48;90.83;102800.44;10450980;28;20055;-82
2021/12/19 22:02:13;;;;;;;13.10;2.63;;;;;;;5.48;91.71;102792.78;10471770;28;20059;-82
2021/12/19 22:07:15;;;;;;;8.25;1.60;;;;;;;5.49;91.28;102766.44;10496840;28;20475;-82
2021/12/19 22:12:46;;;;;;;12.10;2.28;;;;;;;5.47;92.21;102780.81;10474790;28;20054;-82
2021/12/19 22:17:38;;;;;;;12.05;2.25;;;;;;;5.47;92.05;102780.81;10478863;28;20055;-82
2021/12/19 22:22:43;;;;;;;14.82;2.40;;;;;;;5.45;92.16;102774.66;10470307;28;20045;-82
2021/12/19 22:27:45;;;;;;;10.80;2.50;;;;;;;5.46;91.92;102773.91;10471912;28;20098;-82
2021/12/19 22:32:47;;;;;;;6.25;2.10;;;;;;;5.47;91.80;102768.03;10471467;28;20032;-82
2021/12/19 22:37:49;;;;;;;9.63;2.63;;;;;;;5.45;92.33;102773.00;10474154;28;20036;-82
2021/12/19 22:42:51;;;;;;;13.75;2.60;;;;;;;5.45;91.58;102774.66;10469941;28;20045;-83
2021/12/19 22:47:53;;;;;;;12.98;2.35;;;;;;;5.50;91.64;102770.78;10473218;28;20059;-83
2021/12/19 22:52:57;;;;;;;16.88;2.63;;;;;;;5.37;91.28;102774.06;10488623;28;20044;-82
2021/12/19 22:58:00;;;;;;;7.43;2.50;;;;;;;5.36;91.29;102773.19;10493432;28;20063;-82
2021/12/19 23:03:07;;;;;;;13.63;2.63;;;;;;;5.46;90.46;102758.56;10477672;28;20055;-82
2021/12/19 23:08:10;;;;;;;10.10;1.77;;;;;;;5.32;91.26;102771.19;10466311;28;20057;-82
2021/12/19 23:13:21;;;;;;;15.13;1.70;;;;;;;5.34;90.72;102756.84;10475250;28;20036;-82
2021/12/19 23:18:23;;;;;;;10.18;1.90;;;;;;;5.28;90.32;102751.25;10445071;28;20044;-83
2021/12/19 23:23:25;;;;;;;18.25;2.10;;;;;;;5.28;89.73;102753.81;10463390;28;20507;-82
2021/12/19 23:28:27;;;;;;;16.30;1.92;;;;;;;5.23;88.36;102755.13;10460496;28;20464;-82
2021/12/19 23:38:40;;;;;;;18.42;1.85;;;;;;;5.22;89.30;102744.00;10476788;28;20048;-83
2021/12/19 23:49:03;;;;;;;20.95;2.25;;;;;;;5.07;89.22;102738.59;10454971;28;20066;-82
2021/12/19 23:54:05;;;;;;;18.27;2.42;;;;;;;5.08;89.73;102740.38;10466725;28;21899;-82
2021/12/19 23:59:06;;;;;;;19.90;2.40;;;;;;;5.10;89.11;102742.19;10457813;28;20048;-82
